Time;durP1;ratioP1;P1;durP2;ratioP2;P2;SDS_P1;SDS_P2;PMS_P1;PMS_P2;Temp;Humidity;BMP_temperature;BMP_pressure;BME280_temperature;BME280_humidity;BME280_pressure;Samples;Min_cycle;Max_cycle;Signal;HPM_P1;HPM_P2
2021/03/26 00:03:51;;;;;;;4.33;3.93;;;19.60;49.50;;;;;;10492621;28;20192;-22
2021/03/26 00:09:15;;;;;;;3.77;3.47;;;19.60;49.70;;;;;;10492910;28;20212;-23
2021/03/26 00:14:38;;;;;;;4.60;3.93;;;19.50;49.80;;;;;;10492714;28;20192;-21
2021/03/26 00:20:00;;;;;;;5.67;4.37;;;19.40;50.00;;;;;;10491689;28;20218;-20
2021/03/26 00:25:22;;;;;;;4.50;3.80;;;19.30;50.10;;;;;;10465826;28;20205;-18
2021/03/26 00:30:44;;;;;;;4.27;3.87;;;19.30;50.30;;;;;;10452093;28;20234;-22
2021/03/26 00:36:06;;;;;;;4.43;3.63;;;19.30;50.30;;;;;;10458251;28;20197;-21
2021/03/26 00:41:28;;;;;;;5.53;4.07;;;19.30;50.30;;;;;;10465098;28;20218;-23
2021/03/26 00:46:50;;;;;;;4.27;3.87;;;19.30;50.30;;;;;;10500256;28;20513;-22
2021/03/26 00:52:12;;;;;;;4.63;4.00;;;19.20;50.30;;;;;;10499202;28;20242;-20
2021/03/26 00:57:33;;;;;;;4.20;3.80;;;19.20;50.40;;;;;;10490597;28;20201;-18
2021/03/26 01:02:56;;;;;;;4.70;4.10;;;19.10;50.40;;;;;;10457816;28;20220;-23
2021/03/26 01:08:18;;;;;;;4.33;3.93;;;19.10;50.50;;;;;;10458905;28;20194;-21
2021/03/26 01:13:41;;;;;;;4.93;3.97;;;19.10;50.70;;;;;;10457992;28;20267;-19
2021/03/26 01:19:03;;;;;;;4.93;4.13;;;19.10;50.60;;;;;;10457997;28;20226;-22
2021/03/26 01:24:25;;;;;;;5.27;4.43;;;19.10;50.50;;;;;;10458087;28;20193;-21
2021/03/26 01:29:46;;;;;;;4.10;3.80;;;19.10;50.50;;;;;;10453891;28;20225;-22
2021/03/26 01:35:11;;;;;;;4.57;3.67;;;19.10;50.50;;;;;;10452413;28;20197;-20
2021/03/26 01:40:40;;;;;;;4.93;4.10;;;19.00;50.50;;;;;;10456060;28;20205;-19
2021/03/26 01:46:03;;;;;;;5.13;3.70;;;19.00;50.60;;;;;;10415476;28;20577;-21
2021/03/26 01:51:29;;;;;;;4.37;3.87;;;19.00;50.70;;;;;;10414849;28;20228;-21
2021/03/26 01:56:50;;;;;;;4.63;4.13;;;18.90;50.80;;;;;;10415063;28;20194;-21
2021/03/26 02:02:14;;;;;;;4.30;3.90;;;19.00;50.70;;;;;;10414691;28;20217;-21
2021/03/26 02:07:37;;;;;;;4.50;4.10;;;19.00;50.60;;;;;;10414768;28;20205;-21
2021/03/26 02:13:04;;;;;;;4.07;3.57;;;19.00;50.60;;;;;;10413858;28;20226;-19
2021/03/26 02:18:29;;;;;;;3.90;3.50;;;19.00;50.70;;;;;;10431022;28;20604;-22
2021/03/26 02:23:53;;;;;;;3.90;3.40;;;18.90;50.50;;;;;;10454872;28;20205;-21
2021/03/26 02:29:25;;;;;;;5.07;4.30;;;19.00;50.60;;;;;;10455445;28;20220;-21
2021/03/26 02:35:07;;;;;;;3.70;3.40;;;19.00;50.50;;;;;;10455430;28;20196;-18
2021/03/26 02:40:34;;;;;;;3.80;3.50;;;19.00;50.60;;;;;;10454115;28;20221;-21
2021/03/26 02:46:01;;;;;;;4.10;3.70;;;18.90;50.60;;;;;;10413685;28;20190;-23
2021/03/26 02:51:28;;;;;;;4.40;3.87;;;18.90;50.50;;;;;;10413311;28;20232;-21
2021/03/26 02:56:55;;;;;;;4.03;3.63;;;18.90;50.50;;;;;;10412333;28;20190;-21
2021/03/26 03:02:20;;;;;;;3.73;3.43;;;18.90;50.50;;;;;;10412822;28;20550;-19
2021/03/26 03:07:45;;;;;;;4.30;3.90;;;18.90;50.70;;;;;;10412980;28;20208;-22
2021/03/26 03:13:12;;;;;;;3.67;3.20;;;18.80;50.60;;;;;;10412347;28;20226;-19
2021/03/26 03:18:39;;;;;;;4.30;3.90;;;18.80;50.70;;;;;;10411756;28;20577;-23
2021/03/26 03:24:09;;;;;;;4.20;3.80;;;18.80;50.70;;;;;;10411566;28;20194;-22
2021/03/26 03:29:36;;;;;;;4.20;3.67;;;18.80;50.70;;;;;;10411998;28;20216;-21
2021/03/26 03:35:06;;;;;;;3.30;3.00;;;18.90;50.70;;;;;;10438864;28;20669;-20
2021/03/26 03:40:33;;;;;;;3.40;3.10;;;18.90;50.60;;;;;;10409981;28;20206;-20
2021/03/26 03:46:01;;;;;;;4.00;3.60;;;18.80;50.60;;;;;;10492032;28;20191;-19
2021/03/26 03:51:27;;;;;;;3.90;3.53;;;18.80;50.60;;;;;;10469711;22;20235;-24
2021/03/26 03:56:54;;;;;;;4.10;3.70;;;18.90;50.60;;;;;;10394353;28;20210;-25
2021/03/26 04:02:23;;;;;;;3.70;3.40;;;18.90;50.60;;;;;;10375737;28;20240;-29
2021/03/26 04:07:52;;;;;;;3.83;3.53;;;18.80;50.60;;;;;;10368616;28;20577;-26
2021/03/26 04:13:26;;;;;;;3.83;3.37;;;18.80;50.60;;;;;;10367990;28;20229;-20
2021/03/26 04:18:53;;;;;;;3.47;3.13;;;18.80;50.50;;;;;;10368231;28;20194;-25
2021/03/26 04:24:19;;;;;;;3.67;3.37;;;18.80;50.50;;;;;;10374883;28;20805;-23
2021/03/26 04:29:46;;;;;;;3.57;3.27;;;18.80;50.60;;;;;;10408902;28;20216;-25
2021/03/26 04:35:13;;;;;;;4.00;3.57;;;18.80;50.60;;;;;;10409664;28;20190;-23
2021/03/26 04:40:38;;;;;;;3.23;2.93;;;18.80;50.50;;;;;;10407959;28;20213;-24
2021/03/26 04:46:10;;;;;;;3.70;3.33;;;18.90;50.30;;;;;;10368262;28;20638;-26
2021/03/26 04:51:38;;;;;;;3.60;3.30;;;19.00;50.20;;;;;;10367327;28;20226;-25
2021/03/26 04:57:04;;;;;;;3.70;3.30;;;19.00;50.00;;;;;;10366952;28;20195;-27
2021/03/26 05:02:26;;;;;;;3.50;3.20;;;19.10;50.00;;;;;;10367648;28;20297;-26
2021/03/26 05:07:52;;;;;;;4.00;3.50;;;19.00;50.10;;;;;;10367413;28;20698;-25
2021/03/26 05:13:19;;;;;;;3.97;3.60;;;19.00;50.10;;;;;;10366983;28;20234;-25
2021/03/26 05:18:45;;;;;;;3.53;3.23;;;19.00;50.20;;;;;;10372352;28;20198;-24
2021/03/26 05:24:18;;;;;;;4.17;3.43;;;19.00;50.10;;;;;;10374268;28;20585;-29
2021/03/26 05:29:40;;;;;;;3.73;3.43;;;19.10;49.90;;;;;;10374447;28;20219;-26
2021/03/26 05:35:05;;;;;;;4.03;3.70;;;19.20;49.80;;;;;;10402344;28;20576;-26
2021/03/26 05:41:00;;;;;;;3.70;3.20;;;19.20;49.60;;;;;;10415616;28;20206;-24
2021/03/26 05:46:33;;;;;;;3.67;3.33;;;19.20;49.60;;;;;;10370486;28;20198;-24
2021/03/26 05:52:32;;;;;;;4.93;3.93;;;19.20;49.70;;;;;;10414527;28;20218;-26
2021/03/26 05:58:09;;;;;;;4.33;3.80;;;19.20;49.60;;;;;;10414828;28;20673;-24
2021/03/26 06:04:11;;;;;;;4.93;3.40;;;19.20;49.50;;;;;;10412650;28;20213;-23
2021/03/26 06:10:09;;;;;;;3.67;3.27;;;19.30;49.50;;;;;;10414031;28;20280;-26
2021/03/26 06:16:05;;;;;;;3.60;3.07;;;19.30;49.50;;;;;;10442301;28;20202;-24
2021/03/26 06:21:37;;;;;;;4.63;3.50;;;19.20;49.60;;;;;;10453055;28;20213;-24
2021/03/26 06:27:07;;;;;;;5.60;3.50;;;19.30;49.70;;;;;;10447924;28;20542;-25
2021/03/26 06:33:10;;;;;;;3.67;3.30;;;19.30;49.50;;;;;;10412742;28;20213;-26
2021/03/26 06:39:08;;;;;;;3.97;3.63;;;19.30;49.60;;;;;;10412990;28;20190;-25
2021/03/26 06:45:02;;;;;;;3.93;3.00;;;19.30;49.80;;;;;;10422713;28;20569;-25
2021/03/26 06:50:57;;;;;;;3.70;3.40;;;19.30;49.80;;;;;;10412087;28;20226;-25
2021/03/26 06:56:52;;;;;;;4.40;4.00;;;19.30;49.70;;;;;;10413542;28;20205;-25
2021/03/26 07:02:49;;;;;;;3.93;3.63;;;19.40;49.80;;;;;;10411721;28;20224;-24
2021/03/26 07:08:28;;;;;;;4.33;3.90;;;19.30;49.90;;;;;;10409436;28;20248;-28
2021/03/26 07:14:33;;;;;;;13.63;12.10;;;19.30;49.80;;;;;;10408983;28;20225;-30
2021/03/26 07:20:37;;;;;;;20.07;15.17;;;19.30;47.90;;;;;;10444229;28;20217;-24
2021/03/26 07:26:18;;;;;;;19.27;17.20;;;19.30;48.00;;;;;;10452164;28;20240;-23
2021/03/26 07:31:45;;;;;;;21.53;18.43;;;19.20;48.30;;;;;;10412275;28;20221;-23
2021/03/26 07:37:16;;;;;;;23.53;19.03;;;19.20;48.70;;;;;;10370214;28;20589;-26
2021/03/26 07:42:55;;;;;;;20.37;18.17;;;19.20;48.80;;;;;;10382740;28;20202;-26
2021/03/26 07:48:47;;;;;;;23.43;20.73;;;19.20;49.10;;;;;;10370167;28;20206;-27
2021/03/26 07:54:33;;;;;;;22.53;19.93;;;19.10;49.40;;;;;;10369788;28;20210;-25
2021/03/26 08:00:32;;;;;;;21.23;18.77;;;19.10;49.70;;;;;;10368693;28;20582;-26
2021/03/26 08:06:04;;;;;;;21.90;19.10;;;19.10;50.00;;;;;;10311180;28;20194;-27
2021/03/26 08:11:44;;;;;;;20.10;18.00;;;19.10;50.20;;;;;;10409561;28;20283;-27
2021/03/26 08:17:19;;;;;;;20.13;16.80;;;19.10;50.70;;;;;;10409900;28;20248;-26
2021/03/26 08:22:52;;;;;;;21.07;17.37;;;19.20;50.70;;;;;;10409564;28;20690;-26
2021/03/26 08:28:31;;;;;;;21.80;17.17;;;19.20;50.50;;;;;;10408180;28;20566;-28
2021/03/26 08:34:37;;;;;;;19.03;14.60;;;19.20;50.70;;;;;;10390201;28;20749;-25
2021/03/26 08:40:01;;;;;;;18.27;15.37;;;19.30;50.40;;;;;;10294310;28;20218;-26
2021/03/26 08:45:30;;;;;;;15.87;14.17;;;19.60;49.70;;;;;;10409958;28;20627;-26
2021/03/26 08:51:01;;;;;;;16.23;14.37;;;19.80;49.00;;;;;;10408760;28;20710;-27
2021/03/26 08:56:42;;;;;;;15.53;12.93;;;19.90;48.50;;;;;;10416173;28;20198;-26
2021/03/26 09:02:43;;;;;;;16.50;12.37;;;19.90;47.70;;;;;;10415988;28;20245;-27
2021/03/26 09:08:21;;;;;;;15.80;12.03;;;19.70;48.40;;;;;;10451480;28;20197;-26
2021/03/26 09:14:05;;;;;;;15.33;11.30;;;19.50;48.60;;;;;;10457304;28;20245;-27
2021/03/26 09:19:33;;;;;;;13.97;11.47;;;19.40;48.60;;;;;;10456534;28;20199;-27
2021/03/26 09:25:19;;;;;;;14.07;9.63;;;19.40;49.10;;;;;;10416822;28;20232;-26
2021/03/26 09:30:46;;;;;;;11.10;9.27;;;19.40;48.60;;;;;;10414927;28;20209;-26
2021/03/26 09:36:18;;;;;;;12.73;9.90;;;19.30;48.60;;;;;;10415436;28;20194;-27
2021/03/26 09:41:47;;;;;;;16.57;9.33;;;19.30;48.60;;;;;;10422094;28;20612;-26
2021/03/26 09:47:16;;;;;;;33.83;12.27;;;19.30;48.70;;;;;;10456047;28;20238;-24
2021/03/26 09:52:40;;;;;;;47.43;12.40;;;19.30;48.70;;;;;;10462215;22;20234;-22
2021/03/26 09:58:11;;;;;;;40.43;12.30;;;19.30;48.70;;;;;;10443779;28;20205;-22
2021/03/26 10:03:56;;;;;;;41.73;11.30;;;19.30;48.80;;;;;;10390102;28;20285;-20
2021/03/26 10:09:25;;;;;;;35.03;11.03;;;19.30;48.90;;;;;;10406632;28;20205;-23
2021/03/26 10:14:59;;;;;;;29.67;13.80;;;19.20;48.90;;;;;;10408777;28;20198;-21
2021/03/26 10:20:31;;;;;;;26.07;13.17;;;19.10;47.70;;;;;;10412775;28;20207;-22
2021/03/26 10:26:05;;;;;;;18.63;12.83;;;19.10;48.50;;;;;;10410869;28;20712;-18
2021/03/26 10:31:33;;;;;;;59.40;14.70;;;19.10;48.50;;;;;;10410850;28;20222;-23
2021/03/26 10:37:05;;;;;;;54.37;15.73;;;19.10;48.70;;;;;;10420496;28;20197;-22
2021/03/26 10:42:39;;;;;;;50.77;14.67;;;19.10;48.60;;;;;;10434978;28;20213;-22
2021/03/26 10:48:08;;;;;;;42.07;14.67;;;19.00;48.20;;;;;;10411480;28;20277;-22
2021/03/26 10:53:36;;;;;;;27.70;14.77;;;19.00;48.50;;;;;;10411780;28;20225;-24
2021/03/26 10:59:03;;;;;;;29.97;15.07;;;18.90;48.30;;;;;;10410482;28;20206;-23
2021/03/26 11:04:35;;;;;;;44.47;16.83;;;18.90;48.50;;;;;;10411601;28;20206;-23
2021/03/26 11:10:01;;;;;;;39.53;18.07;;;18.90;48.90;;;;;;10410143;28;20233;-22
2021/03/26 11:15:28;;;;;;;34.70;15.83;;;18.90;48.50;;;;;;10387271;28;20669;-22
2021/03/26 11:20:51;;;;;;;33.23;14.70;;;18.90;49.00;;;;;;10409739;28;20202;-25
2021/03/26 11:26:23;;;;;;;27.83;11.50;;;18.90;49.40;;;;;;10412105;28;20201;-21
2021/03/26 11:31:52;;;;;;;21.93;9.80;;;19.00;50.60;;;;;;10410191;28;20221;-23
2021/03/26 11:37:18;;;;;;;20.57;9.03;;;19.00;51.10;;;;;;10409915;28;20193;-22
2021/03/26 11:42:51;;;;;;;19.80;8.23;;;18.90;51.50;;;;;;10409215;28;20210;-23
2021/03/26 11:48:24;;;;;;;21.63;7.37;;;19.00;51.70;;;;;;10411126;28;20202;-23
2021/03/26 11:53:57;;;;;;;10.70;5.50;;;19.10;51.40;;;;;;10409154;28;20214;-23
2021/03/26 11:59:54;;;;;;;15.07;6.93;;;19.20;51.70;;;;;;10408702;28;20186;-21
2021/03/26 12:05:44;;;;;;;11.87;5.47;;;19.10;51.70;;;;;;10402962;28;20255;-23
2021/03/26 12:11:13;;;;;;;9.67;4.83;;;19.10;52.00;;;;;;10401567;28;20222;-23
2021/03/26 12:16:41;;;;;;;13.93;5.07;;;19.00;52.20;;;;;;10409496;28;20304;-20
2021/03/26 12:22:07;;;;;;;12.37;5.17;;;19.00;52.20;;;;;;10406454;28;20218;-20
2021/03/26 12:27:33;;;;;;;9.30;4.60;;;19.00;53.00;;;;;;10412513;28;20199;-23
2021/03/26 12:33:00;;;;;;;10.93;4.60;;;19.00;52.60;;;;;;10439683;28;20323;-26
2021/03/26 12:38:30;;;;;;;6.43;3.63;;;18.90;52.60;;;;;;10377006;28;20187;-21
2021/03/26 12:43:59;;;;;;;5.80;3.77;;;19.10;51.90;;;;;;10401838;28;20379;-23
2021/03/26 12:49:27;;;;;;;6.33;3.47;;;19.20;51.60;;;;;;10451844;28;20204;-25
2021/03/26 12:54:59;;;;;;;7.93;5.47;;;19.30;51.50;;;;;;10420562;28;20581;-19
2021/03/26 13:00:32;;;;;;;10.50;7.33;;;19.30;48.70;;;;;;10415446;28;20562;-23
2021/03/26 13:06:06;;;;;;;8.53;7.53;;;19.20;48.30;;;;;;10416414;28;20210;-24
2021/03/26 13:11:31;;;;;;;9.97;7.97;;;19.20;47.60;;;;;;10416252;28;20268;-23
2021/03/26 13:16:54;;;;;;;8.53;7.40;;;19.20;47.90;;;;;;10415078;28;20304;-23
2021/03/26 13:22:35;;;;;;;9.03;7.50;;;19.20;47.60;;;;;;10414361;28;20217;-24
2021/03/26 13:28:07;;;;;;;5.70;4.20;;;19.20;46.30;;;;;;10416340;28;20190;-24
2021/03/26 13:33:47;;;;;;;7.73;5.93;;;19.20;48.70;;;;;;10415632;28;20221;-24
2021/03/26 13:39:25;;;;;;;8.23;6.33;;;19.30;46.70;;;;;;10414477;28;20752;-22
2021/03/26 13:44:53;;;;;;;6.47;5.17;;;19.20;45.90;;;;;;10387093;28;20241;-22
2021/03/26 13:50:40;;;;;;;8.73;5.60;;;19.20;45.80;;;;;;10373897;28;20218;-20
2021/03/26 13:56:13;;;;;;;7.20;5.23;;;19.20;45.90;;;;;;10374383;28;20669;-23
2021/03/26 14:01:43;;;;;;;7.70;6.20;;;19.20;45.80;;;;;;10373231;28;20211;-23
2021/03/26 14:07:11;;;;;;;7.67;5.90;;;19.20;46.00;;;;;;10408561;28;20623;-24
2021/03/26 14:12:37;;;;;;;7.70;5.67;;;19.20;45.50;;;;;;10413693;28;20221;-25
2021/03/26 14:18:09;;;;;;;8.33;5.67;;;19.20;46.10;;;;;;10414064;28;20205;-24
2021/03/26 14:23:34;;;;;;;5.97;5.00;;;19.20;45.40;;;;;;10383694;28;20682;-23
2021/03/26 14:29:03;;;;;;;6.73;4.90;;;19.10;45.70;;;;;;10372376;28;20204;-20
2021/03/26 14:34:28;;;;;;;5.00;4.50;;;19.10;45.90;;;;;;10371858;28;20562;-23
2021/03/26 14:39:51;;;;;;;5.17;4.60;;;19.10;44.80;;;;;;10431082;28;20197;-22
2021/03/26 14:45:25;;;;;;;6.07;4.90;;;19.00;44.90;;;;;;10411867;28;20189;-23
2021/03/26 14:51:04;;;;;;;5.60;4.50;;;19.00;44.30;;;;;;10411072;28;20218;-22
2021/03/26 14:56:31;;;;;;;5.43;4.10;;;19.00;44.30;;;;;;10412789;28;20284;-22
2021/03/26 15:02:01;;;;;;;3.23;2.90;;;19.00;45.90;;;;;;10412503;28;20206;-23
2021/03/26 15:07:27;;;;;;;3.00;2.70;;;18.90;48.00;;;;;;10411287;28;20624;-24
2021/03/26 15:12:53;;;;;;;2.67;2.47;;;18.90;48.90;;;;;;10410223;28;20225;-23
2021/03/26 15:18:28;;;;;;;4.20;2.77;;;18.90;49.90;;;;;;10408990;28;20200;-19
2021/03/26 15:24:12;;;;;;;2.40;1.90;;;18.80;50.60;;;;;;10408773;28;20220;-24
2021/03/26 15:29:42;;;;;;;2.17;1.97;;;18.70;50.90;;;;;;10410366;28;20233;-20
2021/03/26 15:35:13;;;;;;;3.57;2.30;;;18.70;51.20;;;;;;10407953;28;20217;-24
2021/03/26 15:40:41;;;;;;;2.93;2.10;;;18.70;51.50;;;;;;10411043;28;20313;-21
2021/03/26 15:46:22;;;;;;;1.77;1.67;;;18.60;51.50;;;;;;10411215;28;20194;-22
2021/03/26 15:51:56;;;;;;;2.67;2.20;;;18.60;51.80;;;;;;10431536;23;20249;-21
2021/03/26 15:57:54;;;;;;;3.53;1.90;;;18.60;52.00;;;;;;10409834;28;20201;-24
2021/03/26 16:03:41;;;;;;;2.20;1.80;;;18.60;52.00;;;;;;10409533;28;20275;-25
2021/03/26 16:09:13;;;;;;;2.33;2.10;;;18.60;52.20;;;;;;10410565;28;20197;-23
2021/03/26 16:14:44;;;;;;;2.30;1.80;;;18.60;52.50;;;;;;10410464;28;20232;-20
2021/03/26 16:20:52;;;;;;;1.90;1.80;;;18.60;52.50;;;;;;10410128;28;20259;-23
2021/03/26 16:26:40;;;;;;;2.00;1.80;;;18.50;52.60;;;;;;10340506;28;20202;-24
2021/03/26 16:32:34;;;;;;;1.90;1.70;;;18.50;52.60;;;;;;10368592;28;20221;-23
2021/03/26 16:38:08;;;;;;;2.07;1.70;;;18.50;52.80;;;;;;10369094;28;20202;-21
2021/03/26 16:43:54;;;;;;;2.03;1.80;;;18.50;52.80;;;;;;10391859;28;20209;-23
2021/03/26 16:49:28;;;;;;;2.37;1.73;;;18.50;52.80;;;;;;10409985;28;20201;-24
2021/03/26 16:54:54;;;;;;;1.70;1.60;;;18.40;52.90;;;;;;10408856;28;20225;-23
2021/03/26 17:00:40;;;;;;;2.10;1.87;;;18.50;52.80;;;;;;10409024;28;20206;-24
2021/03/26 17:06:41;;;;;;;1.93;1.60;;;18.50;52.90;;;;;;10409933;28;20210;-22
2021/03/26 17:12:30;;;;;;;1.77;1.60;;;18.40;52.90;;;;;;10410398;28;20218;-24
2021/03/26 17:18:16;;;;;;;1.70;1.60;;;18.40;53.00;;;;;;10418180;28;20190;-23
2021/03/26 17:24:01;;;;;;;2.17;1.73;;;18.50;53.10;;;;;;10418182;28;20206;-24
2021/03/26 17:29:58;;;;;;;2.00;1.80;;;18.40;53.10;;;;;;10416939;28;20198;-24
2021/03/26 17:35:36;;;;;;;1.73;1.63;;;18.40;53.10;;;;;;10385023;28;20388;-23
2021/03/26 17:41:35;;;;;;;2.20;1.57;;;18.40;53.20;;;;;;10417031;28;20647;-23
2021/03/26 17:47:06;;;;;;;1.70;1.60;;;18.40;53.20;;;;;;10415969;28;20321;-23
2021/03/26 17:53:22;;;;;;;2.00;1.80;;;18.40;53.30;;;;;;10412996;28;20273;-23
2021/03/26 17:59:31;;;;;;;2.00;1.80;;;18.40;53.70;;;;;;10339518;28;20198;-25
2021/03/26 18:04:57;;;;;;;2.10;1.80;;;18.40;53.30;;;;;;10414785;28;20219;-24
2021/03/26 18:10:28;;;;;;;2.10;1.90;;;18.40;53.30;;;;;;10413820;28;20204;-21
2021/03/26 18:16:00;;;;;;;2.10;1.80;;;18.40;53.40;;;;;;10414408;28;20639;-23
2021/03/26 18:21:55;;;;;;;2.33;1.70;;;18.40;53.50;;;;;;10413677;28;20209;-21
2021/03/26 18:27:47;;;;;;;1.87;1.77;;;18.40;53.50;;;;;;10413483;28;20194;-23
2021/03/26 18:33:47;;;;;;;1.93;1.80;;;18.40;53.50;;;;;;10412881;28;20228;-22
2021/03/26 18:39:29;;;;;;;1.67;1.57;;;18.40;53.80;;;;;;10405120;28;20206;-21
2021/03/26 18:45:16;;;;;;;4.50;2.10;;;18.40;53.20;;;;;;10405959;28;20206;-23
2021/03/26 18:51:05;;;;;;;6.97;2.03;;;18.50;53.40;;;;;;10403708;28;20225;-23
2021/03/26 18:56:41;;;;;;;2.50;2.27;;;18.40;53.30;;;;;;10407927;28;20216;-26
2021/03/26 19:02:25;;;;;;;2.77;1.77;;;18.40;53.50;;;;;;10407788;28;20309;-24
2021/03/26 19:07:56;;;;;;;2.20;1.60;;;18.40;53.50;;;;;;10408446;28;20228;-24
2021/03/26 19:13:27;;;;;;;1.97;1.67;;;18.40;53.60;;;;;;10411324;28;20220;-23
2021/03/26 19:19:04;;;;;;;3.27;2.37;;;18.30;53.50;;;;;;10412407;28;20202;-24
2021/03/26 19:24:44;;;;;;;3.30;2.30;;;18.30;53.30;;;;;;10412381;28;20417;-23
2021/03/26 19:30:16;;;;;;;5.27;2.33;;;18.40;53.00;;;;;;10411962;28;20202;-24
2021/03/26 19:35:48;;;;;;;2.20;2.00;;;18.30;53.20;;;;;;10410935;28;20619;-24
2021/03/26 19:41:14;;;;;;;2.10;1.90;;;18.30;53.00;;;;;;10403962;28;20806;-24
2021/03/26 19:47:05;;;;;;;3.63;2.20;;;18.30;53.10;;;;;;10388647;28;20194;-25
2021/03/26 19:52:36;;;;;;;3.47;2.10;;;18.30;53.40;;;;;;10369674;28;20724;-22
2021/03/26 19:58:12;;;;;;;2.10;1.60;;;18.30;53.00;;;;;;10407724;28;20681;-23
2021/03/26 20:03:47;;;;;;;3.40;1.80;;;18.30;53.00;;;;;;10371569;28;20694;-21
2021/03/26 20:09:35;;;;;;;1.90;1.63;;;18.40;53.10;;;;;;10369127;28;20581;-24
2021/03/26 20:15:08;;;;;;;2.17;1.97;;;18.30;52.80;;;;;;10369011;28;20225;-22
2021/03/26 20:20:37;;;;;;;2.07;1.90;;;18.30;53.10;;;;;;10371430;28;20204;-24
2021/03/26 20:26:11;;;;;;;2.53;1.97;;;18.30;52.90;;;;;;10410191;28;20225;-22
2021/03/26 20:32:23;;;;;;;2.37;1.97;;;18.30;52.80;;;;;;10409115;28;20228;-25
2021/03/26 20:37:55;;;;;;;1.90;1.57;;;18.30;52.80;;;;;;10410003;28;20197;-22
2021/03/26 20:43:28;;;;;;;1.93;1.73;;;18.30;53.00;;;;;;10409460;28;20218;-23
2021/03/26 20:49:07;;;;;;;2.37;2.03;;;18.30;53.00;;;;;;10413117;28;20209;-25
2021/03/26 20:54:38;;;;;;;2.50;1.90;;;18.30;52.80;;;;;;10418133;28;20229;-24
2021/03/26 21:00:06;;;;;;;1.77;1.60;;;18.30;53.10;;;;;;10417862;28;20205;-25
2021/03/26 21:05:36;;;;;;;1.77;1.60;;;18.30;53.20;;;;;;10377697;28;20191;-24
2021/03/26 21:11:21;;;;;;;1.67;1.57;;;18.30;52.90;;;;;;10375574;28;20214;-25
2021/03/26 21:16:47;;;;;;;1.90;1.80;;;18.30;53.00;;;;;;10376551;28;20673;-24
2021/03/26 21:22:33;;;;;;;3.33;2.10;;;18.30;53.30;;;;;;10391361;28;20220;-24
2021/03/26 21:28:22;;;;;;;1.90;1.70;;;18.30;52.70;;;;;;10416238;28;20194;-23
2021/03/26 21:34:10;;;;;;;2.50;1.70;;;18.30;53.60;;;;;;10415958;28;20620;-24
2021/03/26 21:39:37;;;;;;;1.70;1.57;;;18.30;53.60;;;;;;10415616;28;20669;-25
2021/03/26 21:45:07;;;;;;;2.00;1.80;;;18.30;53.30;;;;;;10416568;28;20218;-24
2021/03/26 21:50:36;;;;;;;2.10;1.80;;;18.20;53.50;;;;;;10415674;28;20190;-25
2021/03/26 21:56:32;;;;;;;2.60;1.80;;;18.20;53.70;;;;;;10409811;23;20234;-22
2021/03/26 22:02:11;;;;;;;2.30;2.10;;;18.20;53.50;;;;;;10406196;28;20589;-19
2021/03/26 22:07:42;;;;;;;1.87;1.73;;;18.20;53.90;;;;;;10413746;28;20549;-17
2021/03/26 22:13:23;;;;;;;3.80;2.13;;;18.20;53.60;;;;;;10412882;28;20226;-18
2021/03/26 22:19:02;;;;;;;2.37;1.60;;;18.20;53.90;;;;;;10413643;28;20201;-22
2021/03/26 22:24:40;;;;;;;2.20;2.00;;;18.10;54.10;;;;;;10414168;28;20566;-22
2021/03/26 22:30:10;;;;;;;2.20;2.00;;;18.20;53.80;;;;;;10414223;28;20530;-18
2021/03/26 22:35:37;;;;;;;4.83;2.30;;;18.20;53.80;;;;;;10413402;28;20284;-23
2021/03/26 22:41:06;;;;;;;2.17;1.97;;;18.10;53.70;;;;;;10413216;28;20249;-23
2021/03/26 22:46:36;;;;;;;2.10;1.90;;;18.10;54.10;;;;;;10413353;28;20627;-23
2021/03/26 22:52:31;;;;;;;3.07;1.93;;;18.10;53.70;;;;;;10412249;28;20693;-23
2021/03/26 22:57:58;;;;;;;2.43;2.20;;;18.10;53.60;;;;;;10412769;28;20197;-20
2021/03/26 23:03:26;;;;;;;3.73;1.73;;;18.10;54.00;;;;;;10413311;28;20218;-23
2021/03/26 23:08:54;;;;;;;2.10;1.83;;;18.10;54.10;;;;;;10413103;28;20232;-22
2021/03/26 23:14:25;;;;;;;4.90;1.90;;;18.10;53.80;;;;;;10412960;28;20217;-23
2021/03/26 23:19:51;;;;;;;2.20;2.00;;;18.10;54.20;;;;;;10404292;28;20634;-22
2021/03/26 23:25:21;;;;;;;2.10;1.90;;;18.10;54.00;;;;;;10371610;28;20202;-22
2021/03/26 23:30:46;;;;;;;2.03;1.83;;;18.10;53.80;;;;;;10370281;28;20190;-25
2021/03/26 23:36:11;;;;;;;2.30;1.90;;;18.10;53.90;;;;;;10370057;28;20206;-21
2021/03/26 23:41:38;;;;;;;2.20;1.97;;;18.00;53.90;;;;;;10376884;28;20688;-22
2021/03/26 23:47:04;;;;;;;2.00;1.90;;;18.10;53.80;;;;;;10412319;28;20190;-19
2021/03/26 23:52:29;;;;;;;2.20;1.90;;;18.00;54.00;;;;;;10410896;28;20220;-22
2021/03/26 23:58:00;;;;;;;2.37;2.17;;;18.00;53.80;;;;;;10411316;28;20668;-19
